sensor_id;sensor_type;location;lat;lon;timestamp;P1;durP1;ratioP1;P2;durP2;ratioP2
58338;SDS011;68636;52.704;6.536;2023-03-21T00:02:01;80.10;;;24.52;;
58338;SDS011;68636;52.704;6.536;2023-03-21T00:04:27;91.15;;;25.83;;
58338;SDS011;68636;52.704;6.536;2023-03-21T00:06:53;77.05;;;24.40;;
58338;SDS011;68636;52.704;6.536;2023-03-21T00:09:19;87.57;;;25.33;;
58338;SDS011;68636;52.704;6.536;2023-03-21T00:11:45;72.22;;;24.95;;
58338;SDS011;68636;52.704;6.536;2023-03-21T00:14:12;80.18;;;24.70;;
58338;SDS011;68636;52.704;6.536;2023-03-21T00:16:42;82.95;;;24.70;;
58338;SDS011;68636;52.704;6.536;2023-03-21T00:19:10;73.53;;;23.42;;
58338;SDS011;68636;52.704;6.536;2023-03-21T00:21:36;74.93;;;24.03;;
58338;SDS011;68636;52.704;6.536;2023-03-21T00:24:03;67.20;;;23.63;;
58338;SDS011;68636;52.704;6.536;2023-03-21T00:28:55;74.65;;;22.63;;
58338;SDS011;68636;52.704;6.536;2023-03-21T00:31:21;71.38;;;23.42;;
58338;SDS011;68636;52.704;6.536;2023-03-21T00:33:47;68.35;;;22.77;;
58338;SDS011;68636;52.704;6.536;2023-03-21T00:36:13;66.45;;;23.10;;
58338;SDS011;68636;52.704;6.536;2023-03-21T00:38:40;67.05;;;22.52;;
58338;SDS011;68636;52.704;6.536;2023-03-21T00:41:06;62.00;;;21.35;;
58338;SDS011;68636;52.704;6.536;2023-03-21T00:43:34;71.97;;;21.45;;
58338;SDS011;68636;52.704;6.536;2023-03-21T00:46:01;70.13;;;21.88;;
58338;SDS011;68636;52.704;6.536;2023-03-21T00:48:27;61.00;;;20.05;;
58338;SDS011;68636;52.704;6.536;2023-03-21T00:50:54;58.40;;;19.45;;
58338;SDS011;68636;52.704;6.536;2023-03-21T00:53:21;69.10;;;21.23;;
58338;SDS011;68636;52.704;6.536;2023-03-21T00:55:47;62.75;;;19.75;;
58338;SDS011;68636;52.704;6.536;2023-03-21T00:58:14;70.28;;;19.52;;
58338;SDS011;68636;52.704;6.536;2023-03-21T01:00:40;67.40;;;20.40;;
58338;SDS011;68636;52.704;6.536;2023-03-21T01:03:07;65.35;;;19.73;;
58338;SDS011;68636;52.704;6.536;2023-03-21T01:05:45;70.07;;;20.40;;
58338;SDS011;68636;52.704;6.536;2023-03-21T01:08:34;71.97;;;20.00;;
58338;SDS011;68636;52.704;6.536;2023-03-21T01:11:06;60.35;;;18.33;;
58338;SDS011;68636;52.704;6.536;2023-03-21T01:13:34;61.83;;;17.30;;
58338;SDS011;68636;52.704;6.536;2023-03-21T01:16:00;64.45;;;18.75;;
58338;SDS011;68636;52.704;6.536;2023-03-21T01:20:55;64.65;;;19.42;;
58338;SDS011;68636;52.704;6.536;2023-03-21T01:23:22;52.85;;;16.77;;
58338;SDS011;68636;52.704;6.536;2023-03-21T01:25:50;51.88;;;16.40;;
58338;SDS011;68636;52.704;6.536;2023-03-21T01:28:17;45.15;;;16.20;;
58338;SDS011;68636;52.704;6.536;2023-03-21T01:30:43;51.72;;;16.27;;
58338;SDS011;68636;52.704;6.536;2023-03-21T01:33:14;49.58;;;16.08;;
58338;SDS011;68636;52.704;6.536;2023-03-21T01:35:41;49.47;;;16.05;;
58338;SDS011;68636;52.704;6.536;2023-03-21T01:38:07;45.25;;;16.58;;
58338;SDS011;68636;52.704;6.536;2023-03-21T01:40:34;48.95;;;15.65;;
58338;SDS011;68636;52.704;6.536;2023-03-21T01:43:00;54.42;;;15.85;;
58338;SDS011;68636;52.704;6.536;2023-03-21T01:48:30;50.15;;;17.00;;
58338;SDS011;68636;52.704;6.536;2023-03-21T01:50:56;56.30;;;17.35;;
58338;SDS011;68636;52.704;6.536;2023-03-21T01:53:24;48.78;;;16.13;;
58338;SDS011;68636;52.704;6.536;2023-03-21T01:55:58;57.30;;;18.42;;
58338;SDS011;68636;52.704;6.536;2023-03-21T01:58:27;48.40;;;15.57;;
58338;SDS011;68636;52.704;6.536;2023-03-21T02:00:54;49.17;;;16.95;;
58338;SDS011;68636;52.704;6.536;2023-03-21T02:03:20;46.10;;;16.30;;
58338;SDS011;68636;52.704;6.536;2023-03-21T02:08:20;50.67;;;17.38;;
58338;SDS011;68636;52.704;6.536;2023-03-21T02:10:47;51.65;;;16.73;;
58338;SDS011;68636;52.704;6.536;2023-03-21T02:13:14;53.28;;;18.67;;
58338;SDS011;68636;52.704;6.536;2023-03-21T02:15:41;44.95;;;15.73;;
58338;SDS011;68636;52.704;6.536;2023-03-21T02:18:21;55.97;;;17.63;;
58338;SDS011;68636;52.704;6.536;2023-03-21T02:29:24;54.13;;;16.67;;
58338;SDS011;68636;52.704;6.536;2023-03-21T02:37:17;55.20;;;16.52;;
58338;SDS011;68636;52.704;6.536;2023-03-21T02:40:04;54.38;;;16.25;;
58338;SDS011;68636;52.704;6.536;2023-03-21T02:42:36;60.10;;;17.33;;
58338;SDS011;68636;52.704;6.536;2023-03-21T02:45:18;45.70;;;15.48;;
58338;SDS011;68636;52.704;6.536;2023-03-21T02:47:49;53.67;;;15.90;;
58338;SDS011;68636;52.704;6.536;2023-03-21T02:53:16;45.88;;;14.93;;
58338;SDS011;68636;52.704;6.536;2023-03-21T02:55:45;49.40;;;15.10;;
58338;SDS011;68636;52.704;6.536;2023-03-21T02:58:16;45.33;;;14.57;;
58338;SDS011;68636;52.704;6.536;2023-03-21T03:00:44;43.72;;;15.30;;
58338;SDS011;68636;52.704;6.536;2023-03-21T03:03:12;40.17;;;14.82;;
58338;SDS011;68636;52.704;6.536;2023-03-21T03:05:43;41.60;;;14.70;;
58338;SDS011;68636;52.704;6.536;2023-03-21T03:08:16;44.47;;;14.93;;
58338;SDS011;68636;52.704;6.536;2023-03-21T03:19:21;38.65;;;13.48;;
58338;SDS011;68636;52.704;6.536;2023-03-21T03:21:55;39.53;;;13.63;;
58338;SDS011;68636;52.704;6.536;2023-03-21T03:24:23;39.55;;;14.32;;
58338;SDS011;68636;52.704;6.536;2023-03-21T03:27:10;47.03;;;14.77;;
58338;SDS011;68636;52.704;6.536;2023-03-21T03:29:41;40.28;;;14.02;;
58338;SDS011;68636;52.704;6.536;2023-03-21T03:32:22;42.28;;;14.80;;
58338;SDS011;68636;52.704;6.536;2023-03-21T03:34:54;42.85;;;13.77;;
58338;SDS011;68636;52.704;6.536;2023-03-21T03:37:22;48.03;;;14.80;;
58338;SDS011;68636;52.704;6.536;2023-03-21T03:39:54;35.70;;;13.82;;
58338;SDS011;68636;52.704;6.536;2023-03-21T03:42:45;41.80;;;14.05;;
58338;SDS011;68636;52.704;6.536;2023-03-21T03:45:16;36.40;;;13.85;;
58338;SDS011;68636;52.704;6.536;2023-03-21T03:48:00;36.90;;;14.05;;
58338;SDS011;68636;52.704;6.536;2023-03-21T03:50:40;37.28;;;13.32;;
58338;SDS011;68636;52.704;6.536;2023-03-21T03:55:43;45.30;;;14.55;;
58338;SDS011;68636;52.704;6.536;2023-03-21T03:58:09;40.37;;;14.33;;
58338;SDS011;68636;52.704;6.536;2023-03-21T04:00:36;48.35;;;15.55;;
58338;SDS011;68636;52.704;6.536;2023-03-21T04:03:03;42.00;;;14.68;;
58338;SDS011;68636;52.704;6.536;2023-03-21T04:05:31;40.80;;;14.20;;
58338;SDS011;68636;52.704;6.536;2023-03-21T04:07:57;46.15;;;14.68;;
58338;SDS011;68636;52.704;6.536;2023-03-21T04:10:23;40.45;;;13.73;;
58338;SDS011;68636;52.704;6.536;2023-03-21T04:12:48;47.50;;;15.40;;
58338;SDS011;68636;52.704;6.536;2023-03-21T04:15:14;46.75;;;15.00;;
58338;SDS011;68636;52.704;6.536;2023-03-21T04:17:40;41.33;;;14.98;;
58338;SDS011;68636;52.704;6.536;2023-03-21T04:20:06;41.95;;;15.07;;
58338;SDS011;68636;52.704;6.536;2023-03-21T04:22:33;42.10;;;14.88;;
58338;SDS011;68636;52.704;6.536;2023-03-21T04:24:59;50.65;;;16.48;;
58338;SDS011;68636;52.704;6.536;2023-03-21T04:27:29;49.30;;;16.85;;
58338;SDS011;68636;52.704;6.536;2023-03-21T04:29:56;51.42;;;17.33;;
58338;SDS011;68636;52.704;6.536;2023-03-21T04:32:23;44.35;;;17.23;;
58338;SDS011;68636;52.704;6.536;2023-03-21T04:34:50;53.42;;;18.20;;
58338;SDS011;68636;52.704;6.536;2023-03-21T04:37:19;52.42;;;18.52;;
58338;SDS011;68636;52.704;6.536;2023-03-21T04:39:47;53.55;;;19.20;;
58338;SDS011;68636;52.704;6.536;2023-03-21T04:42:14;55.58;;;19.17;;
58338;SDS011;68636;52.704;6.536;2023-03-21T04:44:43;53.38;;;20.70;;
58338;SDS011;68636;52.704;6.536;2023-03-21T04:49:37;56.17;;;19.27;;
58338;SDS011;68636;52.704;6.536;2023-03-21T04:52:03;59.33;;;22.80;;
58338;SDS011;68636;52.704;6.536;2023-03-21T04:54:30;55.58;;;20.15;;
58338;SDS011;68636;52.704;6.536;2023-03-21T04:56:56;62.13;;;20.83;;
58338;SDS011;68636;52.704;6.536;2023-03-21T04:59:23;63.85;;;21.73;;
58338;SDS011;68636;52.704;6.536;2023-03-21T05:01:49;62.35;;;21.80;;
58338;SDS011;68636;52.704;6.536;2023-03-21T05:04:15;63.47;;;21.77;;
58338;SDS011;68636;52.704;6.536;2023-03-21T05:06:42;63.05;;;21.92;;
58338;SDS011;68636;52.704;6.536;2023-03-21T05:09:09;60.65;;;21.73;;
58338;SDS011;68636;52.704;6.536;2023-03-21T05:11:36;65.85;;;21.70;;
58338;SDS011;68636;52.704;6.536;2023-03-21T05:14:03;62.20;;;21.50;;
58338;SDS011;68636;52.704;6.536;2023-03-21T05:16:29;61.88;;;21.92;;
58338;SDS011;68636;52.704;6.536;2023-03-21T05:18:56;61.55;;;21.85;;
58338;SDS011;68636;52.704;6.536;2023-03-21T05:21:23;63.78;;;21.88;;
58338;SDS011;68636;52.704;6.536;2023-03-21T05:23:53;64.05;;;22.23;;
58338;SDS011;68636;52.704;6.536;2023-03-21T05:26:22;65.53;;;22.13;;
58338;SDS011;68636;52.704;6.536;2023-03-21T05:28:48;67.93;;;23.38;;
58338;SDS011;68636;52.704;6.536;2023-03-21T05:31:14;64.32;;;21.75;;
58338;SDS011;68636;52.704;6.536;2023-03-21T05:33:41;61.45;;;22.08;;
58338;SDS011;68636;52.704;6.536;2023-03-21T05:38:34;66.03;;;22.45;;
58338;SDS011;68636;52.704;6.536;2023-03-21T05:41:00;61.28;;;22.00;;
58338;SDS011;68636;52.704;6.536;2023-03-21T05:43:26;69.72;;;21.85;;
58338;SDS011;68636;52.704;6.536;2023-03-21T05:45:51;63.25;;;22.85;;
58338;SDS011;68636;52.704;6.536;2023-03-21T05:48:17;61.97;;;21.30;;
58338;SDS011;68636;52.704;6.536;2023-03-21T05:50:43;66.97;;;22.52;;
58338;SDS011;68636;52.704;6.536;2023-03-21T05:53:09;64.93;;;20.95;;
58338;SDS011;68636;52.704;6.536;2023-03-21T05:55:35;60.80;;;21.83;;
58338;SDS011;68636;52.704;6.536;2023-03-21T05:58:00;66.10;;;21.75;;
58338;SDS011;68636;52.704;6.536;2023-03-21T06:00:26;64.40;;;22.30;;
58338;SDS011;68636;52.704;6.536;2023-03-21T06:02:52;62.70;;;21.30;;
58338;SDS011;68636;52.704;6.536;2023-03-21T06:05:18;69.43;;;21.67;;
58338;SDS011;68636;52.704;6.536;2023-03-21T06:07:44;59.40;;;18.88;;
58338;SDS011;68636;52.704;6.536;2023-03-21T06:10:10;52.55;;;18.80;;
58338;SDS011;68636;52.704;6.536;2023-03-21T06:12:36;55.60;;;18.75;;
58338;SDS011;68636;52.704;6.536;2023-03-21T06:15:02;46.03;;;16.42;;
58338;SDS011;68636;52.704;6.536;2023-03-21T06:17:30;51.92;;;18.13;;
58338;SDS011;68636;52.704;6.536;2023-03-21T06:19:56;50.40;;;18.35;;
58338;SDS011;68636;52.704;6.536;2023-03-21T06:22:22;46.70;;;16.80;;
58338;SDS011;68636;52.704;6.536;2023-03-21T06:24:48;41.22;;;15.80;;
58338;SDS011;68636;52.704;6.536;2023-03-21T06:27:14;40.55;;;15.10;;
58338;SDS011;68636;52.704;6.536;2023-03-21T06:29:39;46.05;;;15.38;;
58338;SDS011;68636;52.704;6.536;2023-03-21T06:32:05;43.38;;;14.70;;
58338;SDS011;68636;52.704;6.536;2023-03-21T06:34:31;37.00;;;14.68;;
58338;SDS011;68636;52.704;6.536;2023-03-21T06:36:57;41.80;;;13.97;;
58338;SDS011;68636;52.704;6.536;2023-03-21T06:39:23;39.90;;;14.27;;
58338;SDS011;68636;52.704;6.536;2023-03-21T06:41:49;36.27;;;13.70;;
58338;SDS011;68636;52.704;6.536;2023-03-21T06:44:15;40.33;;;13.23;;
58338;SDS011;68636;52.704;6.536;2023-03-21T06:46:41;37.67;;;13.82;;
58338;SDS011;68636;52.704;6.536;2023-03-21T06:49:07;36.33;;;14.32;;
58338;SDS011;68636;52.704;6.536;2023-03-21T06:51:32;36.08;;;13.65;;
58338;SDS011;68636;52.704;6.536;2023-03-21T06:53:58;36.10;;;13.80;;
58338;SDS011;68636;52.704;6.536;2023-03-21T06:56:24;36.08;;;14.13;;
58338;SDS011;68636;52.704;6.536;2023-03-21T06:58:50;40.45;;;14.48;;
58338;SDS011;68636;52.704;6.536;2023-03-21T07:01:16;39.88;;;14.73;;
58338;SDS011;68636;52.704;6.536;2023-03-21T07:03:42;38.75;;;14.48;;
58338;SDS011;68636;52.704;6.536;2023-03-21T07:06:08;36.42;;;13.40;;
58338;SDS011;68636;52.704;6.536;2023-03-21T07:08:38;36.63;;;14.27;;
58338;SDS011;68636;52.704;6.536;2023-03-21T07:13:31;43.47;;;16.23;;
58338;SDS011;68636;52.704;6.536;2023-03-21T07:15:57;46.10;;;17.70;;
58338;SDS011;68636;52.704;6.536;2023-03-21T07:18:23;46.33;;;17.05;;
58338;SDS011;68636;52.704;6.536;2023-03-21T07:20:49;40.88;;;15.18;;
58338;SDS011;68636;52.704;6.536;2023-03-21T07:23:16;49.67;;;16.80;;
58338;SDS011;68636;52.704;6.536;2023-03-21T07:25:43;43.28;;;17.05;;
58338;SDS011;68636;52.704;6.536;2023-03-21T07:28:09;53.22;;;17.52;;
58338;SDS011;68636;52.704;6.536;2023-03-21T07:30:35;43.17;;;16.25;;
58338;SDS011;68636;52.704;6.536;2023-03-21T07:33:01;43.90;;;15.85;;
58338;SDS011;68636;52.704;6.536;2023-03-21T07:35:26;43.03;;;16.05;;
58338;SDS011;68636;52.704;6.536;2023-03-21T07:37:52;46.20;;;17.92;;
58338;SDS011;68636;52.704;6.536;2023-03-21T07:40:18;42.83;;;16.98;;
58338;SDS011;68636;52.704;6.536;2023-03-21T07:42:44;47.22;;;17.40;;
58338;SDS011;68636;52.704;6.536;2023-03-21T07:45:10;44.92;;;16.25;;
58338;SDS011;68636;52.704;6.536;2023-03-21T07:47:39;41.25;;;16.83;;
58338;SDS011;68636;52.704;6.536;2023-03-21T07:50:05;44.40;;;16.85;;
58338;SDS011;68636;52.704;6.536;2023-03-21T07:52:31;42.75;;;15.98;;
58338;SDS011;68636;52.704;6.536;2023-03-21T07:54:57;39.60;;;15.80;;
58338;SDS011;68636;52.704;6.536;2023-03-21T07:57:23;43.80;;;16.08;;
58338;SDS011;68636;52.704;6.536;2023-03-21T07:59:48;38.83;;;15.95;;
58338;SDS011;68636;52.704;6.536;2023-03-21T08:02:15;41.37;;;16.30;;
58338;SDS011;68636;52.704;6.536;2023-03-21T08:04:41;41.72;;;15.15;;
58338;SDS011;68636;52.704;6.536;2023-03-21T08:07:08;49.47;;;16.43;;
58338;SDS011;68636;52.704;6.536;2023-03-21T08:09:34;46.53;;;16.23;;
58338;SDS011;68636;52.704;6.536;2023-03-21T08:12:01;47.42;;;17.15;;
58338;SDS011;68636;52.704;6.536;2023-03-21T08:14:27;42.42;;;15.70;;
58338;SDS011;68636;52.704;6.536;2023-03-21T08:16:52;42.75;;;16.90;;
58338;SDS011;68636;52.704;6.536;2023-03-21T08:19:18;43.90;;;17.67;;
58338;SDS011;68636;52.704;6.536;2023-03-21T08:21:48;37.85;;;15.43;;
58338;SDS011;68636;52.704;6.536;2023-03-21T08:24:15;41.47;;;16.15;;
58338;SDS011;68636;52.704;6.536;2023-03-21T08:26:41;40.55;;;15.55;;
58338;SDS011;68636;52.704;6.536;2023-03-21T08:31:34;40.40;;;14.97;;
58338;SDS011;68636;52.704;6.536;2023-03-21T08:34:00;36.73;;;15.77;;
58338;SDS011;68636;52.704;6.536;2023-03-21T08:36:26;38.72;;;16.10;;
58338;SDS011;68636;52.704;6.536;2023-03-21T08:38:52;39.17;;;14.35;;
58338;SDS011;68636;52.704;6.536;2023-03-21T08:41:21;47.35;;;15.65;;
58338;SDS011;68636;52.704;6.536;2023-03-21T08:43:49;43.53;;;15.27;;
58338;SDS011;68636;52.704;6.536;2023-03-21T08:46:15;37.03;;;14.25;;
58338;SDS011;68636;52.704;6.536;2023-03-21T08:48:41;32.60;;;14.93;;
58338;SDS011;68636;52.704;6.536;2023-03-21T08:51:07;41.50;;;14.70;;
58338;SDS011;68636;52.704;6.536;2023-03-21T08:53:33;38.05;;;15.25;;
58338;SDS011;68636;52.704;6.536;2023-03-21T08:55:58;36.40;;;13.43;;
58338;SDS011;68636;52.704;6.536;2023-03-21T08:58:24;39.58;;;14.13;;
58338;SDS011;68636;52.704;6.536;2023-03-21T09:00:50;37.20;;;13.57;;
58338;SDS011;68636;52.704;6.536;2023-03-21T09:03:16;35.97;;;13.07;;
58338;SDS011;68636;52.704;6.536;2023-03-21T09:05:42;42.80;;;15.38;;
58338;SDS011;68636;52.704;6.536;2023-03-21T09:08:09;38.55;;;14.63;;
58338;SDS011;68636;52.704;6.536;2023-03-21T09:10:37;39.63;;;13.68;;
58338;SDS011;68636;52.704;6.536;2023-03-21T09:13:03;36.43;;;14.60;;
58338;SDS011;68636;52.704;6.536;2023-03-21T09:15:29;39.35;;;14.30;;
58338;SDS011;68636;52.704;6.536;2023-03-21T09:17:56;43.10;;;14.30;;
58338;SDS011;68636;52.704;6.536;2023-03-21T09:20:37;39.78;;;14.20;;
58338;SDS011;68636;52.704;6.536;2023-03-21T09:23:03;39.83;;;13.55;;
58338;SDS011;68636;52.704;6.536;2023-03-21T09:25:29;34.88;;;13.93;;
58338;SDS011;68636;52.704;6.536;2023-03-21T09:30:23;38.20;;;13.98;;
58338;SDS011;68636;52.704;6.536;2023-03-21T09:32:49;36.42;;;13.23;;
58338;SDS011;68636;52.704;6.536;2023-03-21T09:37:43;31.75;;;13.05;;
58338;SDS011;68636;52.704;6.536;2023-03-21T09:40:14;34.65;;;14.88;;
58338;SDS011;68636;52.704;6.536;2023-03-21T09:43:05;29.15;;;13.57;;
58338;SDS011;68636;52.704;6.536;2023-03-21T09:45:56;32.78;;;14.52;;
58338;SDS011;68636;52.704;6.536;2023-03-21T09:51:21;31.65;;;13.23;;
58338;SDS011;68636;52.704;6.536;2023-03-21T09:53:56;33.45;;;13.60;;
58338;SDS011;68636;52.704;6.536;2023-03-21T09:56:26;34.70;;;14.57;;
58338;SDS011;68636;52.704;6.536;2023-03-21T09:58:53;33.70;;;12.70;;
58338;SDS011;68636;52.704;6.536;2023-03-21T10:04:01;31.20;;;13.05;;
58338;SDS011;68636;52.704;6.536;2023-03-21T10:06:31;29.52;;;12.32;;
58338;SDS011;68636;52.704;6.536;2023-03-21T10:09:05;25.65;;;11.98;;
58338;SDS011;68636;52.704;6.536;2023-03-21T10:14:41;32.10;;;13.30;;
58338;SDS011;68636;52.704;6.536;2023-03-21T10:19:41;31.35;;;12.18;;
58338;SDS011;68636;52.704;6.536;2023-03-21T10:22:10;31.92;;;13.05;;
58338;SDS011;68636;52.704;6.536;2023-03-21T10:24:36;33.45;;;13.23;;
58338;SDS011;68636;52.704;6.536;2023-03-21T10:27:02;33.95;;;13.55;;
58338;SDS011;68636;52.704;6.536;2023-03-21T10:29:31;30.55;;;12.80;;
58338;SDS011;68636;52.704;6.536;2023-03-21T10:32:12;30.38;;;13.15;;
58338;SDS011;68636;52.704;6.536;2023-03-21T10:34:42;31.60;;;11.70;;
58338;SDS011;68636;52.704;6.536;2023-03-21T10:37:16;27.13;;;11.40;;
58338;SDS011;68636;52.704;6.536;2023-03-21T10:39:44;31.30;;;12.60;;
58338;SDS011;68636;52.704;6.536;2023-03-21T10:42:45;30.15;;;11.48;;
58338;SDS011;68636;52.704;6.536;2023-03-21T10:45:04;31.30;;;12.80;;
58338;SDS011;68636;52.704;6.536;2023-03-21T10:47:42;29.83;;;12.73;;
58338;SDS011;68636;52.704;6.536;2023-03-21T10:50:13;38.33;;;14.27;;
58338;SDS011;68636;52.704;6.536;2023-03-21T10:52:54;29.30;;;12.60;;
58338;SDS011;68636;52.704;6.536;2023-03-21T10:55:32;29.45;;;12.85;;
58338;SDS011;68636;52.704;6.536;2023-03-21T10:58:00;28.30;;;12.30;;
58338;SDS011;68636;52.704;6.536;2023-03-21T11:00:36;31.23;;;12.80;;
58338;SDS011;68636;52.704;6.536;2023-03-21T11:03:05;32.58;;;13.52;;
58338;SDS011;68636;52.704;6.536;2023-03-21T11:05:44;31.70;;;13.10;;
58338;SDS011;68636;52.704;6.536;2023-03-21T11:10:47;29.17;;;10.27;;
58338;SDS011;68636;52.704;6.536;2023-03-21T11:13:19;23.83;;;10.15;;
58338;SDS011;68636;52.704;6.536;2023-03-21T11:15:53;25.88;;;10.38;;
58338;SDS011;68636;52.704;6.536;2023-03-21T11:18:22;47.42;;;11.23;;
58338;SDS011;68636;52.704;6.536;2023-03-21T11:20:56;26.48;;;9.70;;
58338;SDS011;68636;52.704;6.536;2023-03-21T11:23:27;21.27;;;9.45;;
58338;SDS011;68636;52.704;6.536;2023-03-21T11:25:55;20.58;;;8.20;;
58338;SDS011;68636;52.704;6.536;2023-03-21T11:28:25;21.63;;;9.63;;
58338;SDS011;68636;52.704;6.536;2023-03-21T11:30:58;20.85;;;9.20;;
58338;SDS011;68636;52.704;6.536;2023-03-21T11:33:27;21.42;;;8.60;;
58338;SDS011;68636;52.704;6.536;2023-03-21T11:36:31;16.95;;;8.63;;
58338;SDS011;68636;52.704;6.536;2023-03-21T11:42:03;22.55;;;7.85;;
58338;SDS011;68636;52.704;6.536;2023-03-21T11:44:38;15.10;;;7.45;;
58338;SDS011;68636;52.704;6.536;2023-03-21T11:47:08;18.13;;;7.43;;
58338;SDS011;68636;52.704;6.536;2023-03-21T11:49:34;17.45;;;7.03;;
58338;SDS011;68636;52.704;6.536;2023-03-21T12:04:59;18.23;;;7.43;;
58338;SDS011;68636;52.704;6.536;2023-03-21T12:20:58;17.77;;;6.55;;
58338;SDS011;68636;52.704;6.536;2023-03-21T12:26:24;16.75;;;6.38;;
58338;SDS011;68636;52.704;6.536;2023-03-21T12:37:19;14.25;;;6.10;;
58338;SDS011;68636;52.704;6.536;2023-03-21T12:40:15;15.23;;;6.25;;
58338;SDS011;68636;52.704;6.536;2023-03-21T12:45:53;20.73;;;7.10;;
58338;SDS011;68636;52.704;6.536;2023-03-21T12:48:27;18.08;;;6.65;;
58338;SDS011;68636;52.704;6.536;2023-03-21T12:50:54;17.10;;;6.53;;
58338;SDS011;68636;52.704;6.536;2023-03-21T12:56:07;17.77;;;6.78;;
58338;SDS011;68636;52.704;6.536;2023-03-21T12:58:43;19.23;;;7.38;;
58338;SDS011;68636;52.704;6.536;2023-03-21T13:01:12;19.42;;;7.05;;
58338;SDS011;68636;52.704;6.536;2023-03-21T13:03:41;16.92;;;8.13;;
58338;SDS011;68636;52.704;6.536;2023-03-21T13:06:15;19.83;;;7.45;;
58338;SDS011;68636;52.704;6.536;2023-03-21T13:08:57;18.10;;;7.03;;
58338;SDS011;68636;52.704;6.536;2023-03-21T13:11:24;21.70;;;7.55;;
58338;SDS011;68636;52.704;6.536;2023-03-21T13:18:53;19.15;;;7.85;;
58338;SDS011;68636;52.704;6.536;2023-03-21T13:21:29;21.33;;;8.00;;
58338;SDS011;68636;52.704;6.536;2023-03-21T13:24:03;15.68;;;7.22;;
58338;SDS011;68636;52.704;6.536;2023-03-21T13:27:04;17.65;;;8.43;;
58338;SDS011;68636;52.704;6.536;2023-03-21T13:29:50;18.83;;;7.47;;
58338;SDS011;68636;52.704;6.536;2023-03-21T13:32:32;15.90;;;7.72;;
58338;SDS011;68636;52.704;6.536;2023-03-21T13:37:59;18.35;;;7.82;;
58338;SDS011;68636;52.704;6.536;2023-03-21T13:43:04;17.50;;;7.50;;
58338;SDS011;68636;52.704;6.536;2023-03-21T13:45:51;20.45;;;8.63;;
58338;SDS011;68636;52.704;6.536;2023-03-21T13:48:30;15.75;;;7.28;;
58338;SDS011;68636;52.704;6.536;2023-03-21T13:51:05;18.05;;;7.43;;
58338;SDS011;68636;52.704;6.536;2023-03-21T13:53:32;16.30;;;6.80;;
58338;SDS011;68636;52.704;6.536;2023-03-21T13:56:19;17.40;;;7.63;;
58338;SDS011;68636;52.704;6.536;2023-03-21T14:03:45;18.70;;;7.10;;
58338;SDS011;68636;52.704;6.536;2023-03-21T14:06:12;19.25;;;7.35;;
58338;SDS011;68636;52.704;6.536;2023-03-21T14:08:40;24.65;;;7.75;;
58338;SDS011;68636;52.704;6.536;2023-03-21T14:11:16;16.85;;;7.35;;
58338;SDS011;68636;52.704;6.536;2023-03-21T14:13:43;21.52;;;7.68;;
58338;SDS011;68636;52.704;6.536;2023-03-21T14:16:16;15.55;;;7.18;;
58338;SDS011;68636;52.704;6.536;2023-03-21T14:18:55;16.67;;;7.32;;
58338;SDS011;68636;52.704;6.536;2023-03-21T14:21:25;16.83;;;6.80;;
58338;SDS011;68636;52.704;6.536;2023-03-21T14:23:57;18.42;;;7.05;;
58338;SDS011;68636;52.704;6.536;2023-03-21T14:26:26;18.00;;;6.80;;
58338;SDS011;68636;52.704;6.536;2023-03-21T14:28:55;15.18;;;7.00;;
58338;SDS011;68636;52.704;6.536;2023-03-21T14:31:22;18.42;;;7.00;;
58338;SDS011;68636;52.704;6.536;2023-03-21T14:33:50;14.48;;;7.15;;
58338;SDS011;68636;52.704;6.536;2023-03-21T14:36:31;15.68;;;7.07;;
58338;SDS011;68636;52.704;6.536;2023-03-21T14:41:28;16.95;;;7.35;;
58338;SDS011;68636;52.704;6.536;2023-03-21T14:44:13;16.58;;;7.05;;
58338;SDS011;68636;52.704;6.536;2023-03-21T14:46:39;17.52;;;6.88;;
58338;SDS011;68636;52.704;6.536;2023-03-21T14:49:09;17.95;;;7.30;;
58338;SDS011;68636;52.704;6.536;2023-03-21T14:51:45;19.23;;;8.27;;
58338;SDS011;68636;52.704;6.536;2023-03-21T14:54:15;18.60;;;7.77;;
58338;SDS011;68636;52.704;6.536;2023-03-21T14:56:43;12.48;;;6.80;;
58338;SDS011;68636;52.704;6.536;2023-03-21T14:59:12;13.88;;;7.00;;
58338;SDS011;68636;52.704;6.536;2023-03-21T15:01:41;15.13;;;7.20;;
58338;SDS011;68636;52.704;6.536;2023-03-21T15:04:10;16.17;;;7.78;;
58338;SDS011;68636;52.704;6.536;2023-03-21T15:06:47;15.05;;;6.78;;
58338;SDS011;68636;52.704;6.536;2023-03-21T15:09:21;21.23;;;8.40;;
58338;SDS011;68636;52.704;6.536;2023-03-21T15:11:51;17.77;;;7.50;;
58338;SDS011;68636;52.704;6.536;2023-03-21T15:14:23;17.35;;;7.13;;
58338;SDS011;68636;52.704;6.536;2023-03-21T15:17:00;17.45;;;8.00;;
58338;SDS011;68636;52.704;6.536;2023-03-21T15:19:30;15.60;;;7.97;;
58338;SDS011;68636;52.704;6.536;2023-03-21T15:22:03;14.52;;;7.55;;
58338;SDS011;68636;52.704;6.536;2023-03-21T15:24:40;16.08;;;7.78;;
58338;SDS011;68636;52.704;6.536;2023-03-21T15:27:13;17.35;;;8.63;;
58338;SDS011;68636;52.704;6.536;2023-03-21T15:29:41;14.57;;;7.53;;
58338;SDS011;68636;52.704;6.536;2023-03-21T15:32:12;13.95;;;7.30;;
58338;SDS011;68636;52.704;6.536;2023-03-21T15:34:41;17.33;;;7.90;;
58338;SDS011;68636;52.704;6.536;2023-03-21T15:37:13;15.23;;;7.65;;
58338;SDS011;68636;52.704;6.536;2023-03-21T15:39:42;17.40;;;7.78;;
58338;SDS011;68636;52.704;6.536;2023-03-21T15:42:25;14.70;;;7.28;;
58338;SDS011;68636;52.704;6.536;2023-03-21T15:45:01;13.95;;;7.57;;
58338;SDS011;68636;52.704;6.536;2023-03-21T15:47:39;15.82;;;7.90;;
58338;SDS011;68636;52.704;6.536;2023-03-21T15:50:26;17.20;;;7.57;;
58338;SDS011;68636;52.704;6.536;2023-03-21T15:52:53;17.88;;;8.00;;
58338;SDS011;68636;52.704;6.536;2023-03-21T15:55:23;16.42;;;8.57;;
58338;SDS011;68636;52.704;6.536;2023-03-21T15:57:58;16.85;;;8.10;;
58338;SDS011;68636;52.704;6.536;2023-03-21T16:00:37;14.00;;;8.45;;
58338;SDS011;68636;52.704;6.536;2023-03-21T16:03:06;17.70;;;9.13;;
58338;SDS011;68636;52.704;6.536;2023-03-21T16:05:42;16.88;;;8.90;;
58338;SDS011;68636;52.704;6.536;2023-03-21T16:08:32;17.15;;;9.15;;
58338;SDS011;68636;52.704;6.536;2023-03-21T16:11:06;18.70;;;9.00;;
58338;SDS011;68636;52.704;6.536;2023-03-21T16:14:02;17.75;;;8.60;;
58338;SDS011;68636;52.704;6.536;2023-03-21T16:16:28;16.77;;;8.30;;
58338;SDS011;68636;52.704;6.536;2023-03-21T16:18:55;18.80;;;9.30;;
58338;SDS011;68636;52.704;6.536;2023-03-21T16:21:23;16.25;;;9.27;;
58338;SDS011;68636;52.704;6.536;2023-03-21T16:23:50;17.85;;;8.55;;
58338;SDS011;68636;52.704;6.536;2023-03-21T16:26:24;16.77;;;8.23;;
58338;SDS011;68636;52.704;6.536;2023-03-21T16:28:54;17.83;;;9.20;;
58338;SDS011;68636;52.704;6.536;2023-03-21T16:31:24;18.42;;;8.15;;
58338;SDS011;68636;52.704;6.536;2023-03-21T16:33:52;18.92;;;9.25;;
58338;SDS011;68636;52.704;6.536;2023-03-21T16:36:25;17.00;;;8.15;;
58338;SDS011;68636;52.704;6.536;2023-03-21T16:38:53;18.45;;;9.45;;
58338;SDS011;68636;52.704;6.536;2023-03-21T16:41:23;18.83;;;9.27;;
58338;SDS011;68636;52.704;6.536;2023-03-21T16:43:50;17.30;;;9.98;;
58338;SDS011;68636;52.704;6.536;2023-03-21T16:46:18;20.38;;;10.00;;
58338;SDS011;68636;52.704;6.536;2023-03-21T16:48:47;19.92;;;10.38;;
58338;SDS011;68636;52.704;6.536;2023-03-21T16:51:14;16.80;;;9.57;;
58338;SDS011;68636;52.704;6.536;2023-03-21T16:53:42;14.93;;;8.50;;